createdAt,value
2023-04-05T00:02:01.684Z,64988.63
2023-04-05T00:07:09.727Z,64966.97
2023-04-05T00:12:13.694Z,65006.66
2023-04-05T00:17:19.171Z,65001.34
2023-04-05T00:22:25.675Z,65011.97
2023-04-05T00:27:30.072Z,64996.25
2023-04-05T00:32:35.491Z,65049.25
2023-04-05T00:37:39.607Z,64966.31
2023-04-05T00:42:43.519Z,65005.59
2023-04-05T00:47:49.069Z,64967.78
2023-04-05T00:52:53.064Z,64973.63
2023-04-05T00:57:57.314Z,64977.47
2023-04-05T01:03:04.378Z,64996.69
2023-04-05T01:08:16.205Z,64974.69
2023-04-05T01:13:20.570Z,64958.91
2023-04-05T01:18:31.313Z,64947.63
2023-04-05T01:23:45.413Z,64958.91
2023-04-05T01:29:32.284Z,64990.19
2023-04-05T01:34:45.676Z,64969.50
2023-04-05T01:39:50.712Z,65000.50
2023-04-05T01:44:56.133Z,65051.25
2023-04-05T01:50:01.679Z,65067.31
2023-04-05T01:55:05.896Z,64982.78
2023-04-05T02:00:11.014Z,64975.47
2023-04-05T02:05:19.308Z,65083.03
2023-04-05T02:10:23.963Z,64961.75
2023-04-05T02:15:27.862Z,65028.84
2023-04-05T02:20:33.700Z,65091.09
2023-04-05T02:25:37.342Z,65058.91
2023-04-05T02:30:42.031Z,65186.31
2023-04-05T02:35:51.767Z,65028.00
2023-04-05T02:40:55.781Z,65063.03
2023-04-05T02:45:59.761Z,65057.53
2023-04-05T02:51:05.275Z,65048.50
2023-04-05T02:56:09.734Z,65041.59
2023-04-05T03:01:19.622Z,65008.56
2023-04-05T03:06:26.557Z,65040.22
2023-04-05T03:11:31.214Z,65051.78
2023-04-05T03:16:40.201Z,65126.16
2023-04-05T03:21:54.845Z,65040.63
2023-04-05T03:27:09.001Z,64961.00
2023-04-05T03:32:32.881Z,64961.13
2023-04-05T03:37:46.534Z,64907.53
2023-04-05T03:42:51.397Z,64948.06
2023-04-05T03:47:55.918Z,65002.41
2023-04-05T03:53:01.611Z,64916.44
2023-04-05T03:58:06.279Z,65050.41
2023-04-05T04:03:14.104Z,65117.34
2023-04-05T04:08:23.391Z,65175.59
2023-04-05T04:13:27.445Z,65133.69
2023-04-05T04:18:47.302Z,65199.09
2023-04-05T04:24:09.542Z,65177.72
2023-04-05T04:29:33.631Z,65057.75
2023-04-05T04:34:56.020Z,65000.28
2023-04-05T04:40:39.990Z,65056.56
2023-04-05T04:46:06.739Z,65191.53
2023-04-05T04:51:18.470Z,65262.81
2023-04-05T04:56:23.755Z,65126.25
2023-04-05T05:01:28.702Z,65066.66
2023-04-05T05:06:32.748Z,65017.69
2023-04-05T05:11:38.292Z,64940.22
2023-04-05T05:16:45.871Z,64918.47
2023-04-05T05:21:50.259Z,64965.69
2023-04-05T05:26:55.736Z,65033.19
2023-04-05T05:31:59.703Z,65079.41
2023-04-05T05:37:03.666Z,65197.91
2023-04-05T05:42:09.092Z,65232.59
2023-04-05T05:47:13.160Z,65153.81
2023-04-05T05:52:17.231Z,65142.75
2023-04-05T05:57:23.301Z,65114.38
2023-04-05T06:02:27.614Z,65156.66
2023-04-05T06:07:31.768Z,65112.34
2023-04-05T06:12:37.171Z,65103.75
2023-04-05T06:17:42.804Z,65098.41
2023-04-05T06:22:46.814Z,65198.97
2023-04-05T06:27:52.281Z,65135.19
2023-04-05T06:32:56.298Z,65152.75
2023-04-05T06:38:00.393Z,65176.66
2023-04-05T06:43:06.084Z,65242.59
2023-04-05T06:48:10.088Z,65247.38
2023-04-05T06:53:18.324Z,65285.78
2023-04-05T06:58:24.511Z,65344.22
2023-04-05T07:03:28.641Z,65406.53
2023-04-05T07:08:34.123Z,65386.63
2023-04-05T07:13:39.830Z,65294.84
2023-04-05T07:18:43.804Z,65368.19
2023-04-05T07:23:47.711Z,65450.41
2023-04-05T07:28:53.576Z,65441.34
2023-04-05T07:33:58.286Z,65643.25
2023-04-05T07:39:02.445Z,65357.66
2023-04-05T07:44:07.890Z,65409.75
2023-04-05T07:49:11.928Z,65428.38
2023-04-05T07:54:15.890Z,65407.59
2023-04-05T07:59:21.180Z,65254.28
2023-04-05T08:04:26.395Z,65198.97
2023-04-05T08:09:30.704Z,65222.16
2023-04-05T08:14:37.075Z,65221.97
2023-04-05T08:19:40.993Z,65200.69
2023-04-05T08:24:45.078Z,65220.47
2023-04-05T08:29:50.709Z,65250.91
2023-04-05T08:34:54.643Z,65264.50
2023-04-05T08:39:58.935Z,65388.72
2023-04-05T08:45:05.540Z,65333.59
2023-04-05T08:50:13.653Z,65299.72
2023-04-05T08:55:18.305Z,65338.38
2023-04-05T09:00:23.963Z,65343.69
2023-04-05T09:05:28.523Z,65451.72
2023-04-05T09:10:32.989Z,65614.56
2023-04-05T09:15:40.359Z,65590.88
2023-04-05T09:20:44.461Z,65487.44
2023-04-05T09:25:52.735Z,65556.84
2023-04-05T09:30:58.101Z,65521.22
2023-04-05T09:36:02.155Z,65462.78
2023-04-05T09:41:10.611Z,65594.81
2023-04-05T09:46:31.312Z,65739.47
2023-04-05T09:51:37.002Z,65539.31
2023-04-05T09:56:57.018Z,65566.53
2023-04-05T10:02:03.980Z,65630.00
2023-04-05T10:07:08.673Z,65449.06
2023-04-05T10:12:19.617Z,65488.06
2023-04-05T10:17:32.837Z,65519.72
2023-04-05T10:22:42.328Z,65533.38
2023-04-05T10:27:49.579Z,65624.25
2023-04-05T10:33:12.617Z,65639.19
2023-04-05T10:38:25.215Z,65827.09
2023-04-05T10:43:30.343Z,65834.03
2023-04-05T10:48:53.881Z,65623.19
2023-04-05T10:53:58.198Z,65678.16
2023-04-05T10:59:03.768Z,65880.00
2023-04-05T11:04:15.153Z,65870.50
2023-04-05T11:09:20.980Z,65804.84
2023-04-05T11:14:26.540Z,65753.44
2023-04-05T11:19:52.404Z,65831.91
2023-04-05T11:24:58.374Z,65697.28
2023-04-05T11:30:03.436Z,65725.66
2023-04-05T11:35:14.140Z,65805.81
2023-04-05T11:40:29.660Z,65944.19
2023-04-05T11:45:35.215Z,65835.72
2023-04-05T11:50:42.813Z,65698.97
2023-04-05T11:55:50.619Z,65936.25
2023-04-05T12:01:01.935Z,65729.22
2023-04-05T12:06:08.915Z,65720.03
2023-04-05T12:11:13.603Z,65764.09
2023-04-05T12:16:17.659Z,65759.13
2023-04-05T12:21:24.385Z,65862.19
2023-04-05T12:26:28.993Z,65935.09
2023-04-05T12:31:40.359Z,65820.16
2023-04-05T12:36:48.621Z,65710.19
2023-04-05T12:42:00.988Z,65584.13
2023-04-05T12:47:09.226Z,65894.91
2023-04-05T12:52:20.902Z,65784.94
2023-04-05T12:57:31.520Z,65971.47
2023-04-05T13:02:35.966Z,65835.19
2023-04-05T13:07:41.509Z,65993.31
2023-04-05T13:12:45.608Z,66142.47
2023-04-05T13:17:52.142Z,66083.38
2023-04-05T13:22:57.588Z,66308.13
2023-04-05T13:28:01.645Z,66142.91
2023-04-05T13:33:05.926Z,65868.88
2023-04-05T13:38:11.364Z,65788.72
2023-04-05T13:43:15.432Z,65616.16
2023-04-05T13:48:19.343Z,65857.13
2023-04-05T13:53:27.244Z,65832.53
2023-04-05T13:58:32.424Z,65763.03
2023-04-05T14:03:36.624Z,65955.31
2023-04-05T14:08:42.172Z,65846.41
2023-04-05T14:13:46.124Z,65700.91
2023-04-05T14:18:50.416Z,65610.38
2023-04-05T14:23:57.207Z,65816.41
2023-04-05T14:29:01.615Z,65933.06
2023-04-05T14:34:05.852Z,65951.06
2023-04-05T14:39:11.598Z,65942.03
2023-04-05T14:44:15.576Z,66100.06
2023-04-05T14:49:19.628Z,66043.84
2023-04-05T14:54:25.373Z,65830.19
2023-04-05T14:59:31.008Z,65642.19
2023-04-05T15:04:35.443Z,65954.91
2023-04-05T15:09:41.033Z,66115.69
2023-04-05T15:14:45.932Z,66001.00
2023-04-05T15:19:50.113Z,65904.63
2023-04-05T15:24:57.095Z,65671.09
2023-04-05T15:30:01.365Z,65717.13
2023-04-05T15:35:06.187Z,65731.00
2023-04-05T15:40:12.514Z,65869.50
2023-04-05T15:45:16.593Z,65934.66
2023-04-05T15:50:21.856Z,65924.94
2023-04-05T15:55:27.308Z,65665.88
2023-04-05T16:00:32.812Z,65595.25
2023-04-05T16:05:36.841Z,65623.63
2023-04-05T16:10:42.907Z,65621.47
2023-04-05T16:15:47.018Z,65732.22
2023-04-05T16:20:52.109Z,65736.34
2023-04-05T16:25:57.676Z,65600.13
2023-04-05T16:31:01.766Z,65542.97
2023-04-05T16:36:06.374Z,65593.31
2023-04-05T16:41:12.088Z,65516.84
2023-04-05T16:46:16.097Z,65411.34
2023-04-05T16:51:20.262Z,65407.59
2023-04-05T16:56:25.964Z,65456.63
2023-04-05T17:01:30.617Z,65359.25
2023-04-05T17:06:35.027Z,65389.25
2023-04-05T17:11:40.569Z,65332.00
2023-04-05T17:16:44.708Z,65353.28
2023-04-05T17:21:48.885Z,65374.16
2023-04-05T17:26:54.515Z,65402.28
2023-04-05T17:31:58.779Z,65308.78
2023-04-05T17:37:03.105Z,65286.22
2023-04-05T17:42:08.644Z,65261.31
2023-04-05T17:47:13.431Z,65281.84
2023-04-05T17:52:18.286Z,65282.59
2023-04-05T17:57:23.855Z,65281.53
2023-04-05T18:02:28.559Z,65295.25
2023-04-05T18:07:36.020Z,65301.13
2023-04-05T18:12:41.503Z,65295.81
2023-04-05T18:17:46.243Z,65247.47
2023-04-05T18:22:50.528Z,65288.88
2023-04-05T18:27:56.530Z,65221.44
2023-04-05T18:33:00.812Z,65244.41
2023-04-05T18:38:06.486Z,65252.81
2023-04-05T18:43:12.037Z,65271.84
2023-04-05T18:48:17.387Z,65296.22
2023-04-05T18:53:21.470Z,65259.09
2023-04-05T18:58:26.962Z,65260.25
2023-04-05T19:03:31.216Z,65231.09
2023-04-05T19:08:35.460Z,65228.13
2023-04-05T19:13:41.477Z,65174.97
2023-04-05T19:18:45.947Z,65215.34
2023-04-05T19:23:50.452Z,65277.91
2023-04-05T19:28:56.265Z,65261.84
2023-04-05T19:34:00.119Z,65234.09
2023-04-05T19:39:04.636Z,65161.97
2023-04-05T19:44:12.492Z,65217.59
2023-04-05T19:49:34.154Z,65211.84
2023-04-05T19:54:38.280Z,65227.81
2023-04-05T19:59:44.236Z,65216.19
2023-04-05T20:04:48.681Z,65220.25
2023-04-05T20:09:54.742Z,65181.97
2023-04-05T20:15:00.362Z,65174.53
2023-04-05T20:20:07.379Z,65148.16
2023-04-05T20:25:38.263Z,65176.22
2023-04-05T20:30:44.189Z,65167.31
2023-04-05T20:35:48.834Z,65219.81
2023-04-05T20:40:52.948Z,65180.38
2023-04-05T20:45:58.376Z,65204.31
2023-04-05T20:51:05.979Z,65173.03
2023-04-05T20:56:11.255Z,65211.31
2023-04-05T21:01:16.815Z,65171.56
2023-04-05T21:06:21.293Z,65167.72
2023-04-05T21:11:26.424Z,65120.97
2023-04-05T21:16:32.059Z,65088.66
2023-04-05T21:21:36.081Z,65082.47
2023-04-05T21:26:40.120Z,65077.28
2023-04-05T21:31:45.610Z,65079.28
2023-04-05T21:36:49.768Z,65062.94
2023-04-05T21:41:53.894Z,65089.59
2023-04-05T21:47:00.187Z,65127.22
2023-04-05T21:52:04.502Z,65097.88
2023-04-05T21:57:08.522Z,65061.34
2023-04-05T22:02:13.974Z,65017.78
2023-04-05T22:07:18.344Z,65001.78
2023-04-05T22:12:22.617Z,64984.88
2023-04-05T22:17:28.058Z,64992.31
2023-04-05T22:22:32.073Z,64985.41
2023-04-05T22:27:36.327Z,65006.34
2023-04-05T22:32:42.312Z,64985.84
2023-04-05T22:37:46.383Z,64976.28
2023-04-05T22:42:50.656Z,65005.06
2023-04-05T22:47:56.121Z,64981.81
2023-04-05T22:53:00.330Z,64999.22
2023-04-05T22:58:04.874Z,64997.09
2023-04-05T23:03:10.321Z,65061.34
2023-04-05T23:08:14.376Z,65009.19
2023-04-05T23:13:18.433Z,65013.97
2023-04-05T23:18:23.899Z,65000.81
2023-04-05T23:23:27.902Z,64995.94
2023-04-05T23:28:31.938Z,65005.59
2023-04-05T23:33:37.399Z,65004.00
2023-04-05T23:38:41.355Z,65011.97
2023-04-05T23:43:46.115Z,65006.00
2023-04-05T23:48:51.464Z,65017.25
2023-04-05T23:53:55.461Z,64995.81
2023-04-05T23:58:59.441Z,64988.19
